sensor_id;sensor_type;location;lat;lon;timestamp;P1;durP1;ratioP1;P2;durP2;ratioP2
2564;SDS011;1292;48.020;7.822;2023-06-04T05:45:29;5.03;;;4.43;;
2564;SDS011;1292;48.020;7.822;2023-06-04T05:47:56;5.30;;;3.67;;
2564;SDS011;1292;48.020;7.822;2023-06-04T05:50:22;4.50;;;4.10;;
2564;SDS011;1292;48.020;7.822;2023-06-04T05:52:49;5.17;;;4.33;;
2564;SDS011;1292;48.020;7.822;2023-06-04T05:55:16;5.57;;;3.97;;
2564;SDS011;1292;48.020;7.822;2023-06-04T05:57:44;3.57;;;3.13;;
2564;SDS011;1292;48.020;7.822;2023-06-04T06:00:11;6.70;;;3.83;;
2564;SDS011;1292;48.020;7.822;2023-06-04T06:02:40;3.93;;;3.63;;
2564;SDS011;1292;48.020;7.822;2023-06-04T06:05:07;4.03;;;3.37;;
2564;SDS011;1292;48.020;7.822;2023-06-04T06:07:34;4.70;;;3.97;;
2564;SDS011;1292;48.020;7.822;2023-06-04T06:10:00;3.80;;;3.40;;
2564;SDS011;1292;48.020;7.822;2023-06-04T06:12:28;5.47;;;4.07;;
2564;SDS011;1292;48.020;7.822;2023-06-04T06:14:54;5.20;;;3.93;;
2564;SDS011;1292;48.020;7.822;2023-06-04T06:17:21;5.37;;;3.43;;
2564;SDS011;1292;48.020;7.822;2023-06-04T06:19:50;5.33;;;3.63;;
2564;SDS011;1292;48.020;7.822;2023-06-04T06:22:17;5.07;;;3.43;;
2564;SDS011;1292;48.020;7.822;2023-06-04T06:24:43;5.13;;;3.13;;
2564;SDS011;1292;48.020;7.822;2023-06-04T06:27:11;4.90;;;3.70;;
2564;SDS011;1292;48.020;7.822;2023-06-04T06:29:38;4.10;;;3.70;;
2564;SDS011;1292;48.020;7.822;2023-06-04T06:32:05;5.17;;;3.53;;
2564;SDS011;1292;48.020;7.822;2023-06-04T06:34:32;5.37;;;3.50;;
2564;SDS011;1292;48.020;7.822;2023-06-04T06:37:00;4.27;;;3.87;;
2564;SDS011;1292;48.020;7.822;2023-06-04T06:39:27;3.90;;;3.50;;
2564;SDS011;1292;48.020;7.822;2023-06-04T06:41:54;5.30;;;4.43;;
2564;SDS011;1292;48.020;7.822;2023-06-04T06:44:21;4.77;;;4.37;;
2564;SDS011;1292;48.020;7.822;2023-06-04T06:46:48;6.63;;;4.40;;
2564;SDS011;1292;48.020;7.822;2023-06-04T06:49:15;5.07;;;3.90;;
2564;SDS011;1292;48.020;7.822;2023-06-04T06:51:42;13.23;;;4.70;;
2564;SDS011;1292;48.020;7.822;2023-06-04T06:54:10;6.73;;;3.93;;
2564;SDS011;1292;48.020;7.822;2023-06-04T06:56:37;8.50;;;4.17;;
2564;SDS011;1292;48.020;7.822;2023-06-04T06:59:03;5.40;;;4.10;;
2564;SDS011;1292;48.020;7.822;2023-06-04T07:01:30;5.27;;;4.47;;
2564;SDS011;1292;48.020;7.822;2023-06-04T07:03:58;6.57;;;4.10;;
2564;SDS011;1292;48.020;7.822;2023-06-04T07:06:25;7.97;;;3.63;;
2564;SDS011;1292;48.020;7.822;2023-06-04T07:08:52;8.63;;;4.27;;
2564;SDS011;1292;48.020;7.822;2023-06-04T07:11:20;4.70;;;3.30;;
2564;SDS011;1292;48.020;7.822;2023-06-04T07:13:47;4.50;;;3.50;;
2564;SDS011;1292;48.020;7.822;2023-06-04T07:16:14;4.50;;;3.83;;
2564;SDS011;1292;48.020;7.822;2023-06-04T07:18:41;4.10;;;3.73;;
2564;SDS011;1292;48.020;7.822;2023-06-04T07:21:08;4.93;;;4.13;;
2564;SDS011;1292;48.020;7.822;2023-06-04T07:23:35;4.47;;;4.10;;
2564;SDS011;1292;48.020;7.822;2023-06-04T07:26:01;6.00;;;4.13;;
2564;SDS011;1292;48.020;7.822;2023-06-04T07:28:30;3.60;;;3.30;;
2564;SDS011;1292;48.020;7.822;2023-06-04T07:30:56;7.30;;;4.03;;
2564;SDS011;1292;48.020;7.822;2023-06-04T07:33:24;5.40;;;3.90;;
2564;SDS011;1292;48.020;7.822;2023-06-04T07:35:51;4.90;;;3.87;;
2564;SDS011;1292;48.020;7.822;2023-06-04T07:38:18;7.17;;;3.37;;
2564;SDS011;1292;48.020;7.822;2023-06-04T07:40:45;7.03;;;3.47;;
2564;SDS011;1292;48.020;7.822;2023-06-04T07:43:12;4.37;;;3.97;;
2564;SDS011;1292;48.020;7.822;2023-06-04T07:45:40;6.67;;;3.80;;
2564;SDS011;1292;48.020;7.822;2023-06-04T07:48:08;4.80;;;3.80;;
2564;SDS011;1292;48.020;7.822;2023-06-04T07:50:35;5.90;;;3.80;;
2564;SDS011;1292;48.020;7.822;2023-06-04T07:53:02;3.80;;;3.47;;
2564;SDS011;1292;48.020;7.822;2023-06-04T07:55:29;4.30;;;3.07;;
2564;SDS011;1292;48.020;7.822;2023-06-04T07:57:56;4.30;;;3.07;;
2564;SDS011;1292;48.020;7.822;2023-06-04T08:00:23;3.43;;;3.10;;
2564;SDS011;1292;48.020;7.822;2023-06-04T08:02:51;3.43;;;3.00;;
2564;SDS011;1292;48.020;7.822;2023-06-04T08:05:18;4.63;;;4.10;;
2564;SDS011;1292;48.020;7.822;2023-06-04T08:07:45;3.33;;;3.03;;
2564;SDS011;1292;48.020;7.822;2023-06-04T08:10:12;3.73;;;2.60;;
2564;SDS011;1292;48.020;7.822;2023-06-04T08:12:39;2.63;;;2.43;;
2564;SDS011;1292;48.020;7.822;2023-06-04T08:15:06;3.97;;;3.57;;
2564;SDS011;1292;48.020;7.822;2023-06-04T08:17:33;2.30;;;2.10;;
2564;SDS011;1292;48.020;7.822;2023-06-04T08:20:02;4.70;;;3.37;;
2564;SDS011;1292;48.020;7.822;2023-06-04T08:22:31;7.40;;;3.23;;
2564;SDS011;1292;48.020;7.822;2023-06-04T08:24:58;4.80;;;3.10;;
2564;SDS011;1292;48.020;7.822;2023-06-04T08:27:25;8.87;;;2.73;;
2564;SDS011;1292;48.020;7.822;2023-06-04T08:29:51;2.97;;;2.67;;
2564;SDS011;1292;48.020;7.822;2023-06-04T08:32:18;3.90;;;2.60;;
2564;SDS011;1292;48.020;7.822;2023-06-04T08:34:45;3.07;;;2.40;;
2564;SDS011;1292;48.020;7.822;2023-06-04T08:37:13;6.17;;;2.90;;
2564;SDS011;1292;48.020;7.822;2023-06-04T08:39:40;6.73;;;2.80;;
2564;SDS011;1292;48.020;7.822;2023-06-04T08:42:07;3.70;;;2.47;;
2564;SDS011;1292;48.020;7.822;2023-06-04T08:44:44;3.60;;;3.17;;
2564;SDS011;1292;48.020;7.822;2023-06-04T08:47:12;3.50;;;3.00;;
2564;SDS011;1292;48.020;7.822;2023-06-04T08:49:40;3.97;;;3.67;;
2564;SDS011;1292;48.020;7.822;2023-06-04T08:52:11;7.80;;;4.17;;
2564;SDS011;1292;48.020;7.822;2023-06-04T08:54:39;6.93;;;3.30;;
2564;SDS011;1292;48.020;7.822;2023-06-04T08:57:06;3.13;;;2.60;;
2564;SDS011;1292;48.020;7.822;2023-06-04T08:59:34;4.40;;;3.57;;
2564;SDS011;1292;48.020;7.822;2023-06-04T09:02:02;3.73;;;3.40;;
2564;SDS011;1292;48.020;7.822;2023-06-04T09:04:30;5.47;;;3.60;;
2564;SDS011;1292;48.020;7.822;2023-06-04T09:06:58;3.33;;;3.03;;
2564;SDS011;1292;48.020;7.822;2023-06-04T09:09:28;3.30;;;3.00;;
2564;SDS011;1292;48.020;7.822;2023-06-04T09:11:57;4.87;;;4.47;;
2564;SDS011;1292;48.020;7.822;2023-06-04T09:14:27;6.30;;;3.37;;
2564;SDS011;1292;48.020;7.822;2023-06-04T09:16:54;3.43;;;3.13;;
2564;SDS011;1292;48.020;7.822;2023-06-04T09:19:24;3.40;;;2.97;;
2564;SDS011;1292;48.020;7.822;2023-06-04T09:21:51;4.83;;;3.33;;
2564;SDS011;1292;48.020;7.822;2023-06-04T09:24:19;6.20;;;3.47;;
2564;SDS011;1292;48.020;7.822;2023-06-04T09:26:47;5.83;;;3.10;;
2564;SDS011;1292;48.020;7.822;2023-06-04T09:29:15;3.87;;;3.47;;
2564;SDS011;1292;48.020;7.822;2023-06-04T09:31:44;3.33;;;3.03;;
2564;SDS011;1292;48.020;7.822;2023-06-04T09:34:12;4.20;;;3.80;;
2564;SDS011;1292;48.020;7.822;2023-06-04T09:36:39;5.50;;;3.23;;
2564;SDS011;1292;48.020;7.822;2023-06-04T09:39:14;4.47;;;3.80;;
2564;SDS011;1292;48.020;7.822;2023-06-04T09:41:41;4.07;;;3.73;;
2564;SDS011;1292;48.020;7.822;2023-06-04T09:44:08;3.73;;;3.43;;
2564;SDS011;1292;48.020;7.822;2023-06-04T09:46:38;5.33;;;3.27;;
2564;SDS011;1292;48.020;7.822;2023-06-04T09:49:05;5.23;;;3.47;;
2564;SDS011;1292;48.020;7.822;2023-06-04T09:51:32;7.00;;;3.60;;
2564;SDS011;1292;48.020;7.822;2023-06-04T09:54:00;3.70;;;3.40;;
2564;SDS011;1292;48.020;7.822;2023-06-04T09:56:27;3.87;;;3.10;;
2564;SDS011;1292;48.020;7.822;2023-06-04T09:58:54;6.07;;;3.87;;
2564;SDS011;1292;48.020;7.822;2023-06-04T10:01:22;4.43;;;3.80;;
2564;SDS011;1292;48.020;7.822;2023-06-04T10:03:53;5.23;;;4.27;;
2564;SDS011;1292;48.020;7.822;2023-06-04T10:06:21;5.20;;;3.67;;
2564;SDS011;1292;48.020;7.822;2023-06-04T10:08:49;5.27;;;3.80;;
2564;SDS011;1292;48.020;7.822;2023-06-04T10:11:17;5.37;;;4.10;;
2564;SDS011;1292;48.020;7.822;2023-06-04T10:13:48;3.43;;;3.10;;
2564;SDS011;1292;48.020;7.822;2023-06-04T10:16:19;5.97;;;3.60;;
2564;SDS011;1292;48.020;7.822;2023-06-04T10:18:47;4.03;;;3.67;;
2564;SDS011;1292;48.020;7.822;2023-06-04T10:21:16;10.17;;;4.93;;
2564;SDS011;1292;48.020;7.822;2023-06-04T10:23:44;8.93;;;4.23;;
2564;SDS011;1292;48.020;7.822;2023-06-04T10:26:13;5.33;;;4.37;;
2564;SDS011;1292;48.020;7.822;2023-06-04T10:28:40;5.00;;;3.77;;
2564;SDS011;1292;48.020;7.822;2023-06-04T10:31:08;6.57;;;4.57;;
2564;SDS011;1292;48.020;7.822;2023-06-04T10:33:35;6.20;;;4.80;;
2564;SDS011;1292;48.020;7.822;2023-06-04T10:36:15;4.97;;;4.57;;
2564;SDS011;1292;48.020;7.822;2023-06-04T10:38:45;10.57;;;5.30;;
2564;SDS011;1292;48.020;7.822;2023-06-04T10:41:15;5.80;;;5.20;;
2564;SDS011;1292;48.020;7.822;2023-06-04T10:43:43;6.33;;;4.50;;
2564;SDS011;1292;48.020;7.822;2023-06-04T10:46:11;8.03;;;5.03;;
2564;SDS011;1292;48.020;7.822;2023-06-04T10:48:48;5.20;;;4.70;;
2564;SDS011;1292;48.020;7.822;2023-06-04T10:51:28;8.17;;;5.33;;
2564;SDS011;1292;48.020;7.822;2023-06-04T10:53:56;5.63;;;4.50;;
2564;SDS011;1292;48.020;7.822;2023-06-04T10:56:24;4.70;;;3.70;;
2564;SDS011;1292;48.020;7.822;2023-06-04T10:58:52;5.40;;;3.93;;
2564;SDS011;1292;48.020;7.822;2023-06-04T11:01:23;4.97;;;4.30;;
2564;SDS011;1292;48.020;7.822;2023-06-04T11:03:50;4.50;;;4.10;;
2564;SDS011;1292;48.020;7.822;2023-06-04T11:06:19;3.93;;;3.53;;
2564;SDS011;1292;48.020;7.822;2023-06-04T11:08:46;6.73;;;4.40;;
2564;SDS011;1292;48.020;7.822;2023-06-04T11:11:13;5.67;;;4.07;;
2564;SDS011;1292;48.020;7.822;2023-06-04T11:13:41;5.93;;;4.20;;
2564;SDS011;1292;48.020;7.822;2023-06-04T11:16:15;6.00;;;4.20;;
2564;SDS011;1292;48.020;7.822;2023-06-04T11:18:43;5.57;;;5.07;;
2564;SDS011;1292;48.020;7.822;2023-06-04T11:21:21;7.20;;;4.13;;
2564;SDS011;1292;48.020;7.822;2023-06-04T11:23:48;6.60;;;4.50;;
2564;SDS011;1292;48.020;7.822;2023-06-04T11:26:15;6.83;;;4.47;;
2564;SDS011;1292;48.020;7.822;2023-06-04T11:28:42;7.27;;;4.67;;
2564;SDS011;1292;48.020;7.822;2023-06-04T11:31:10;4.47;;;3.97;;
2564;SDS011;1292;48.020;7.822;2023-06-04T11:33:43;5.00;;;4.00;;
2564;SDS011;1292;48.020;7.822;2023-06-04T11:36:22;6.33;;;4.63;;
2564;SDS011;1292;48.020;7.822;2023-06-04T11:38:54;4.60;;;4.20;;
2564;SDS011;1292;48.020;7.822;2023-06-04T11:41:22;6.13;;;5.50;;
2564;SDS011;1292;48.020;7.822;2023-06-04T11:43:49;4.43;;;4.03;;
2564;SDS011;1292;48.020;7.822;2023-06-04T11:46:16;5.03;;;4.53;;
2564;SDS011;1292;48.020;7.822;2023-06-04T11:48:44;5.03;;;4.53;;
2564;SDS011;1292;48.020;7.822;2023-06-04T11:51:11;5.70;;;4.10;;
2564;SDS011;1292;48.020;7.822;2023-06-04T11:53:40;5.90;;;4.70;;
2564;SDS011;1292;48.020;7.822;2023-06-04T11:56:07;5.20;;;4.70;;
2564;SDS011;1292;48.020;7.822;2023-06-04T11:58:34;4.70;;;4.30;;
2564;SDS011;1292;48.020;7.822;2023-06-04T12:01:01;5.90;;;5.40;;
2564;SDS011;1292;48.020;7.822;2023-06-04T12:03:34;5.40;;;4.50;;
2564;SDS011;1292;48.020;7.822;2023-06-04T12:06:10;6.93;;;4.80;;
2564;SDS011;1292;48.020;7.822;2023-06-04T12:08:45;6.63;;;4.27;;
2564;SDS011;1292;48.020;7.822;2023-06-04T12:11:22;4.37;;;3.97;;
2564;SDS011;1292;48.020;7.822;2023-06-04T12:13:53;5.93;;;4.57;;
2564;SDS011;1292;48.020;7.822;2023-06-04T12:16:21;5.33;;;4.67;;
2564;SDS011;1292;48.020;7.822;2023-06-04T12:18:48;4.90;;;4.40;;
2564;SDS011;1292;48.020;7.822;2023-06-04T12:21:17;4.80;;;4.40;;
2564;SDS011;1292;48.020;7.822;2023-06-04T12:23:46;5.33;;;4.23;;
2564;SDS011;1292;48.020;7.822;2023-06-04T12:26:20;7.27;;;4.70;;
2564;SDS011;1292;48.020;7.822;2023-06-04T12:28:58;5.40;;;4.50;;
2564;SDS011;1292;48.020;7.822;2023-06-04T12:31:25;5.20;;;4.70;;
2564;SDS011;1292;48.020;7.822;2023-06-04T12:33:58;4.10;;;3.70;;
2564;SDS011;1292;48.020;7.822;2023-06-04T12:36:26;4.33;;;3.87;;
2564;SDS011;1292;48.020;7.822;2023-06-04T12:38:58;4.30;;;3.90;;
2564;SDS011;1292;48.020;7.822;2023-06-04T12:41:26;4.67;;;4.27;;
2564;SDS011;1292;48.020;7.822;2023-06-04T12:43:53;4.80;;;4.50;;
2564;SDS011;1292;48.020;7.822;2023-06-04T12:46:20;4.90;;;4.50;;
2564;SDS011;1292;48.020;7.822;2023-06-04T12:48:48;5.10;;;4.53;;
2564;SDS011;1292;48.020;7.822;2023-06-04T12:51:15;8.17;;;4.27;;
2564;SDS011;1292;48.020;7.822;2023-06-04T12:53:42;4.57;;;4.27;;
2564;SDS011;1292;48.020;7.822;2023-06-04T12:56:11;5.20;;;4.70;;
2564;SDS011;1292;48.020;7.822;2023-06-04T12:58:38;5.20;;;4.47;;
2564;SDS011;1292;48.020;7.822;2023-06-04T13:01:05;4.97;;;4.50;;
2564;SDS011;1292;48.020;7.822;2023-06-04T13:03:33;4.83;;;4.43;;
2564;SDS011;1292;48.020;7.822;2023-06-04T13:06:02;7.63;;;4.20;;
2564;SDS011;1292;48.020;7.822;2023-06-04T13:08:29;4.57;;;3.90;;
2564;SDS011;1292;48.020;7.822;2023-06-04T13:10:56;4.67;;;4.27;;
2564;SDS011;1292;48.020;7.822;2023-06-04T13:13:24;5.63;;;4.90;;
2564;SDS011;1292;48.020;7.822;2023-06-04T13:15:51;4.77;;;4.33;;
2564;SDS011;1292;48.020;7.822;2023-06-04T13:18:18;7.13;;;4.50;;
2564;SDS011;1292;48.020;7.822;2023-06-04T13:20:45;4.80;;;3.90;;
2564;SDS011;1292;48.020;7.822;2023-06-04T13:23:12;4.80;;;4.40;;
2564;SDS011;1292;48.020;7.822;2023-06-04T13:25:39;5.90;;;4.23;;
2564;SDS011;1292;48.020;7.822;2023-06-04T13:28:07;5.23;;;4.20;;
2564;SDS011;1292;48.020;7.822;2023-06-04T13:30:36;7.20;;;3.93;;
2564;SDS011;1292;48.020;7.822;2023-06-04T13:33:03;5.13;;;4.47;;
2564;SDS011;1292;48.020;7.822;2023-06-04T13:35:30;5.23;;;4.73;;
2564;SDS011;1292;48.020;7.822;2023-06-04T13:37:58;4.77;;;4.30;;
2564;SDS011;1292;48.020;7.822;2023-06-04T13:40:24;6.80;;;4.80;;
2564;SDS011;1292;48.020;7.822;2023-06-04T13:42:51;5.47;;;4.50;;
2564;SDS011;1292;48.020;7.822;2023-06-04T13:45:18;5.53;;;4.47;;
2564;SDS011;1292;48.020;7.822;2023-06-04T13:47:47;4.80;;;4.40;;
2564;SDS011;1292;48.020;7.822;2023-06-04T13:50:14;4.40;;;3.93;;
2564;SDS011;1292;48.020;7.822;2023-06-04T13:52:41;7.37;;;4.10;;
2564;SDS011;1292;48.020;7.822;2023-06-04T13:55:08;6.33;;;3.30;;
2564;SDS011;1292;48.020;7.822;2023-06-04T13:57:35;4.67;;;4.27;;
2564;SDS011;1292;48.020;7.822;2023-06-04T14:00:02;6.37;;;3.90;;
2564;SDS011;1292;48.020;7.822;2023-06-04T14:02:31;5.03;;;4.00;;
2564;SDS011;1292;48.020;7.822;2023-06-04T14:04:59;5.87;;;4.40;;
2564;SDS011;1292;48.020;7.822;2023-06-04T14:07:26;6.10;;;4.13;;
2564;SDS011;1292;48.020;7.822;2023-06-04T14:09:53;4.33;;;3.90;;
2564;SDS011;1292;48.020;7.822;2023-06-04T14:12:20;8.37;;;4.93;;
2564;SDS011;1292;48.020;7.822;2023-06-04T14:14:47;5.00;;;4.50;;
2564;SDS011;1292;48.020;7.822;2023-06-04T14:17:15;4.53;;;4.10;;
2564;SDS011;1292;48.020;7.822;2023-06-04T14:19:42;3.60;;;3.27;;
2564;SDS011;1292;48.020;7.822;2023-06-04T14:22:11;6.67;;;4.27;;
2564;SDS011;1292;48.020;7.822;2023-06-04T14:24:39;4.67;;;4.17;;
2564;SDS011;1292;48.020;7.822;2023-06-04T14:27:07;4.37;;;3.83;;
2564;SDS011;1292;48.020;7.822;2023-06-04T14:29:34;5.10;;;4.60;;
2564;SDS011;1292;48.020;7.822;2023-06-04T14:32:01;4.50;;;4.10;;
2564;SDS011;1292;48.020;7.822;2023-06-04T14:34:28;5.67;;;5.17;;
2564;SDS011;1292;48.020;7.822;2023-06-04T14:36:57;4.67;;;4.27;;
2564;SDS011;1292;48.020;7.822;2023-06-04T14:39:26;5.13;;;4.63;;
2564;SDS011;1292;48.020;7.822;2023-06-04T14:41:53;5.87;;;3.70;;
2564;SDS011;1292;48.020;7.822;2023-06-04T14:44:20;4.47;;;4.07;;
2564;SDS011;1292;48.020;7.822;2023-06-04T14:46:48;4.53;;;4.13;;
2564;SDS011;1292;48.020;7.822;2023-06-04T14:49:15;5.47;;;4.97;;
2564;SDS011;1292;48.020;7.822;2023-06-04T14:51:42;8.37;;;4.43;;
2564;SDS011;1292;48.020;7.822;2023-06-04T14:54:09;4.80;;;3.70;;
2564;SDS011;1292;48.020;7.822;2023-06-04T14:56:37;4.10;;;3.60;;
2564;SDS011;1292;48.020;7.822;2023-06-04T14:59:04;5.03;;;4.17;;
2564;SDS011;1292;48.020;7.822;2023-06-04T15:01:34;4.03;;;3.73;;
2564;SDS011;1292;48.020;7.822;2023-06-04T15:04:01;6.23;;;4.40;;
2564;SDS011;1292;48.020;7.822;2023-06-04T15:06:28;4.43;;;4.03;;
2564;SDS011;1292;48.020;7.822;2023-06-04T15:08:55;4.43;;;3.77;;
2564;SDS011;1292;48.020;7.822;2023-06-04T15:11:22;7.20;;;4.40;;
2564;SDS011;1292;48.020;7.822;2023-06-04T15:13:50;3.73;;;3.37;;
2564;SDS011;1292;48.020;7.822;2023-06-04T15:16:18;6.20;;;3.47;;
2564;SDS011;1292;48.020;7.822;2023-06-04T15:18:45;5.10;;;3.70;;
2564;SDS011;1292;48.020;7.822;2023-06-04T15:21:12;5.70;;;3.67;;
2564;SDS011;1292;48.020;7.822;2023-06-04T15:23:39;4.30;;;3.03;;
2564;SDS011;1292;48.020;7.822;2023-06-04T15:26:09;3.20;;;2.90;;
2564;SDS011;1292;48.020;7.822;2023-06-04T15:28:36;3.13;;;2.80;;
2564;SDS011;1292;48.020;7.822;2023-06-04T15:31:04;5.00;;;2.70;;
2564;SDS011;1292;48.020;7.822;2023-06-04T15:33:31;3.20;;;3.00;;
2564;SDS011;1292;48.020;7.822;2023-06-04T15:35:58;4.23;;;3.13;;
2564;SDS011;1292;48.020;7.822;2023-06-04T15:38:25;3.10;;;2.80;;
2564;SDS011;1292;48.020;7.822;2023-06-04T15:40:52;3.50;;;3.13;;
2564;SDS011;1292;48.020;7.822;2023-06-04T15:43:18;3.90;;;3.50;;
2564;SDS011;1292;48.020;7.822;2023-06-04T15:45:45;4.10;;;3.40;;
2564;SDS011;1292;48.020;7.822;2023-06-04T15:48:13;2.83;;;2.63;;
2564;SDS011;1292;48.020;7.822;2023-06-04T15:50:41;6.03;;;3.73;;
2564;SDS011;1292;48.020;7.822;2023-06-04T15:53:07;3.70;;;2.83;;
2564;SDS011;1292;48.020;7.822;2023-06-04T15:55:34;3.43;;;3.13;;
2564;SDS011;1292;48.020;7.822;2023-06-04T15:58:01;2.83;;;2.63;;
2564;SDS011;1292;48.020;7.822;2023-06-04T16:00:28;3.50;;;3.20;;
2564;SDS011;1292;48.020;7.822;2023-06-04T16:02:55;2.93;;;2.63;;
2564;SDS011;1292;48.020;7.822;2023-06-04T16:05:23;3.10;;;2.80;;
2564;SDS011;1292;48.020;7.822;2023-06-04T16:07:50;3.47;;;2.80;;
2564;SDS011;1292;48.020;7.822;2023-06-04T16:10:17;6.33;;;2.47;;
2564;SDS011;1292;48.020;7.822;2023-06-04T16:12:43;3.23;;;2.93;;
2564;SDS011;1292;48.020;7.822;2023-06-04T16:15:10;3.60;;;3.30;;
2564;SDS011;1292;48.020;7.822;2023-06-04T16:17:37;4.63;;;3.20;;
2564;SDS011;1292;48.020;7.822;2023-06-04T16:20:07;3.40;;;3.10;;
2564;SDS011;1292;48.020;7.822;2023-06-04T16:22:36;4.63;;;3.13;;
2564;SDS011;1292;48.020;7.822;2023-06-04T16:25:03;4.57;;;2.80;;
2564;SDS011;1292;48.020;7.822;2023-06-04T16:27:30;2.60;;;2.40;;
2564;SDS011;1292;48.020;7.822;2023-06-04T16:29:58;3.40;;;3.10;;
2564;SDS011;1292;48.020;7.822;2023-06-04T16:32:25;4.00;;;3.00;;
2564;SDS011;1292;48.020;7.822;2023-06-04T16:34:51;3.90;;;3.50;;
2564;SDS011;1292;48.020;7.822;2023-06-04T16:37:18;3.43;;;3.20;;
2564;SDS011;1292;48.020;7.822;2023-06-04T16:39:46;7.83;;;4.13;;
2564;SDS011;1292;48.020;7.822;2023-06-04T16:42:13;3.97;;;3.67;;
2564;SDS011;1292;48.020;7.822;2023-06-04T16:44:40;4.13;;;3.73;;
2564;SDS011;1292;48.020;7.822;2023-06-04T16:47:07;5.40;;;3.20;;
2564;SDS011;1292;48.020;7.822;2023-06-04T16:49:33;5.27;;;4.03;;
2564;SDS011;1292;48.020;7.822;2023-06-04T16:52:00;5.60;;;4.90;;
2564;SDS011;1292;48.020;7.822;2023-06-04T16:54:29;3.93;;;3.53;;
2564;SDS011;1292;48.020;7.822;2023-06-04T16:56:58;4.03;;;3.63;;
2564;SDS011;1292;48.020;7.822;2023-06-04T16:59:25;3.80;;;3.50;;
2564;SDS011;1292;48.020;7.822;2023-06-04T17:01:55;9.57;;;3.77;;
2564;SDS011;1292;48.020;7.822;2023-06-04T17:04:22;4.73;;;4.20;;
2564;SDS011;1292;48.020;7.822;2023-06-04T17:06:49;4.80;;;4.40;;
2564;SDS011;1292;48.020;7.822;2023-06-04T17:09:16;3.83;;;3.43;;
2564;SDS011;1292;48.020;7.822;2023-06-04T17:11:43;5.00;;;4.60;;
2564;SDS011;1292;48.020;7.822;2023-06-04T17:14:11;4.70;;;4.30;;
2564;SDS011;1292;48.020;7.822;2023-06-04T17:16:38;4.83;;;4.30;;
2564;SDS011;1292;48.020;7.822;2023-06-04T17:19:04;4.33;;;3.93;;
2564;SDS011;1292;48.020;7.822;2023-06-04T17:21:31;4.20;;;3.90;;
2564;SDS011;1292;48.020;7.822;2023-06-04T17:23:59;4.37;;;4.00;;
2564;SDS011;1292;48.020;7.822;2023-06-04T17:26:27;4.50;;;3.63;;
2564;SDS011;1292;48.020;7.822;2023-06-04T17:28:54;5.20;;;4.70;;
2564;SDS011;1292;48.020;7.822;2023-06-04T17:31:22;4.57;;;3.90;;
2564;SDS011;1292;48.020;7.822;2023-06-04T17:33:49;6.80;;;5.50;;
2564;SDS011;1292;48.020;7.822;2023-06-04T17:36:16;4.00;;;3.70;;
2564;SDS011;1292;48.020;7.822;2023-06-04T17:38:44;6.77;;;4.97;;
2564;SDS011;1292;48.020;7.822;2023-06-04T17:41:11;4.80;;;4.30;;
2564;SDS011;1292;48.020;7.822;2023-06-04T17:43:38;5.17;;;4.77;;
2564;SDS011;1292;48.020;7.822;2023-06-04T17:46:05;5.60;;;4.47;;
2564;SDS011;1292;48.020;7.822;2023-06-04T17:48:33;5.57;;;5.07;;
2564;SDS011;1292;48.020;7.822;2023-06-04T17:51:00;4.90;;;4.10;;
2564;SDS011;1292;48.020;7.822;2023-06-04T17:53:28;6.07;;;5.27;;
2564;SDS011;1292;48.020;7.822;2023-06-04T17:55:56;5.03;;;4.53;;
2564;SDS011;1292;48.020;7.822;2023-06-04T17:58:23;4.33;;;4.03;;
2564;SDS011;1292;48.020;7.822;2023-06-04T18:00:49;9.37;;;4.60;;
2564;SDS011;1292;48.020;7.822;2023-06-04T18:03:16;5.10;;;4.60;;
2564;SDS011;1292;48.020;7.822;2023-06-04T18:05:44;5.53;;;5.00;;
2564;SDS011;1292;48.020;7.822;2023-06-04T18:08:11;4.30;;;3.77;;
2564;SDS011;1292;48.020;7.822;2023-06-04T18:10:38;4.43;;;4.03;;
2564;SDS011;1292;48.020;7.822;2023-06-04T18:13:06;5.97;;;4.90;;
2564;SDS011;1292;48.020;7.822;2023-06-04T18:15:33;5.73;;;4.93;;
2564;SDS011;1292;48.020;7.822;2023-06-04T18:18:00;4.20;;;3.80;;
2564;SDS011;1292;48.020;7.822;2023-06-04T18:20:27;4.60;;;4.20;;
2564;SDS011;1292;48.020;7.822;2023-06-04T18:22:55;4.90;;;4.40;;
2564;SDS011;1292;48.020;7.822;2023-06-04T18:25:23;4.43;;;4.03;;
2564;SDS011;1292;48.020;7.822;2023-06-04T18:27:50;4.97;;;4.47;;
2564;SDS011;1292;48.020;7.822;2023-06-04T18:30:17;6.53;;;4.70;;
2564;SDS011;1292;48.020;7.822;2023-06-04T18:32:44;10.47;;;4.20;;
2564;SDS011;1292;48.020;7.822;2023-06-04T18:35:10;8.70;;;5.10;;
2564;SDS011;1292;48.020;7.822;2023-06-04T18:37:37;5.97;;;5.20;;
2564;SDS011;1292;48.020;7.822;2023-06-04T18:40:06;4.63;;;4.10;;
2564;SDS011;1292;48.020;7.822;2023-06-04T18:42:33;9.60;;;4.30;;
2564;SDS011;1292;48.020;7.822;2023-06-04T18:45:00;5.90;;;4.33;;
2564;SDS011;1292;48.020;7.822;2023-06-04T18:47:29;7.17;;;4.63;;
2564;SDS011;1292;48.020;7.822;2023-06-04T18:49:56;4.83;;;4.33;;
2564;SDS011;1292;48.020;7.822;2023-06-04T18:52:22;4.97;;;4.43;;
2564;SDS011;1292;48.020;7.822;2023-06-04T18:54:49;6.93;;;4.57;;
2564;SDS011;1292;48.020;7.822;2023-06-04T18:57:17;4.97;;;4.50;;
2564;SDS011;1292;48.020;7.822;2023-06-04T18:59:45;5.53;;;4.50;;
2564;SDS011;1292;48.020;7.822;2023-06-04T19:02:12;6.07;;;5.30;;
2564;SDS011;1292;48.020;7.822;2023-06-04T19:04:40;5.37;;;4.53;;
2564;SDS011;1292;48.020;7.822;2023-06-04T19:07:07;4.90;;;4.33;;
2564;SDS011;1292;48.020;7.822;2023-06-04T19:09:34;5.50;;;4.77;;
2564;SDS011;1292;48.020;7.822;2023-06-04T19:12:01;4.73;;;4.23;;
2564;SDS011;1292;48.020;7.822;2023-06-04T19:14:29;5.27;;;4.87;;
2564;SDS011;1292;48.020;7.822;2023-06-04T19:16:56;6.13;;;5.23;;
2564;SDS011;1292;48.020;7.822;2023-06-04T19:19:26;5.70;;;4.80;;
2564;SDS011;1292;48.020;7.822;2023-06-04T19:21:53;4.97;;;4.57;;
2564;SDS011;1292;48.020;7.822;2023-06-04T19:24:23;6.47;;;5.30;;
2564;SDS011;1292;48.020;7.822;2023-06-04T19:26:50;7.53;;;4.40;;
2564;SDS011;1292;48.020;7.822;2023-06-04T19:29:17;9.10;;;4.90;;
2564;SDS011;1292;48.020;7.822;2023-06-04T19:31:46;4.63;;;4.23;;
2564;SDS011;1292;48.020;7.822;2023-06-04T19:34:13;5.13;;;4.60;;
2564;SDS011;1292;48.020;7.822;2023-06-04T19:36:39;4.80;;;4.40;;
2564;SDS011;1292;48.020;7.822;2023-06-04T19:39:06;5.30;;;4.60;;
2564;SDS011;1292;48.020;7.822;2023-06-04T19:41:33;4.80;;;4.40;;
2564;SDS011;1292;48.020;7.822;2023-06-04T19:44:00;7.23;;;5.80;;
2564;SDS011;1292;48.020;7.822;2023-06-04T19:46:26;6.63;;;5.13;;
2564;SDS011;1292;48.020;7.822;2023-06-04T19:48:55;6.07;;;4.77;;
2564;SDS011;1292;48.020;7.822;2023-06-04T19:51:23;5.60;;;5.10;;
2564;SDS011;1292;48.020;7.822;2023-06-04T19:53:50;5.30;;;4.80;;
2564;SDS011;1292;48.020;7.822;2023-06-04T19:56:16;5.10;;;4.70;;
2564;SDS011;1292;48.020;7.822;2023-06-04T19:58:43;5.07;;;4.60;;
2564;SDS011;1292;48.020;7.822;2023-06-04T20:01:11;8.10;;;5.33;;
2564;SDS011;1292;48.020;7.822;2023-06-04T20:03:38;5.70;;;5.07;;
2564;SDS011;1292;48.020;7.822;2023-06-04T20:06:07;6.60;;;5.83;;
2564;SDS011;1292;48.020;7.822;2023-06-04T20:08:34;6.43;;;5.80;;
2564;SDS011;1292;48.020;7.822;2023-06-04T20:11:01;13.93;;;6.50;;
2564;SDS011;1292;48.020;7.822;2023-06-04T20:13:28;6.40;;;5.80;;
2564;SDS011;1292;48.020;7.822;2023-06-04T20:15:55;6.17;;;5.60;;
2564;SDS011;1292;48.020;7.822;2023-06-04T20:18:22;6.90;;;6.10;;
2564;SDS011;1292;48.020;7.822;2023-06-04T20:20:49;6.37;;;5.53;;
2564;SDS011;1292;48.020;7.822;2023-06-04T20:23:18;7.13;;;6.43;;
2564;SDS011;1292;48.020;7.822;2023-06-04T20:25:45;6.53;;;5.90;;
2564;SDS011;1292;48.020;7.822;2023-06-04T20:28:12;5.50;;;4.93;;
2564;SDS011;1292;48.020;7.822;2023-06-04T20:30:39;5.53;;;5.10;;
2564;SDS011;1292;48.020;7.822;2023-06-04T20:33:06;6.63;;;5.30;;
2564;SDS011;1292;48.020;7.822;2023-06-04T20:35:33;5.10;;;4.60;;
2564;SDS011;1292;48.020;7.822;2023-06-04T20:38:00;6.07;;;5.40;;
2564;SDS011;1292;48.020;7.822;2023-06-04T20:40:29;5.73;;;5.20;;
2564;SDS011;1292;48.020;7.822;2023-06-04T20:42:56;6.23;;;5.63;;
2564;SDS011;1292;48.020;7.822;2023-06-04T20:45:22;5.90;;;5.40;;
2564;SDS011;1292;48.020;7.822;2023-06-04T20:47:50;6.03;;;5.40;;
2564;SDS011;1292;48.020;7.822;2023-06-04T20:50:17;6.97;;;6.43;;
2564;SDS011;1292;48.020;7.822;2023-06-04T20:52:44;5.93;;;5.33;;
2564;SDS011;1292;48.020;7.822;2023-06-04T20:55:11;5.50;;;5.00;;
2564;SDS011;1292;48.020;7.822;2023-06-04T20:57:40;6.30;;;4.93;;
2564;SDS011;1292;48.020;7.822;2023-06-04T21:00:07;5.60;;;5.10;;
2564;SDS011;1292;48.020;7.822;2023-06-04T21:02:34;5.80;;;5.27;;